»·PEaware :: N132KT KANW-2V5

N132KT :: KANW-2V5

FLIGHT INFORMATION

Flight Status: Arrived
Operator: Privately registered:
United States
More flights under this callsign
Pilot: Keith S. (1)
Aircraft: BEECH AIRCRAFT BARON
(BE58)
More flights by this aircraft type
Origin: KANW Ainsworth Mun
United States
Destination: 2V5 Wray Mun
United States
More flights between these airports :: More routes between these airports
Route:
File this flight plan on PilotEdge
Remarks:
Altitude:
(Current/Filed)
8,500ft
Speed:
(Current/Filed)
165kts
Departed: 07-May-19 11:41 AM
Arrived: 07-May-19 12:48 PM
Distance/Time
Traveled:
180nm/1:07
Distance/Time
To Go:
Arrived

Flight Plot

Page will automatically refresh every two minutes.

Flight plan parsing failed; only flown route is shown


Map Options




Map Legend


Flown Route
Filed Route
Departure Airport
Arrival Airport
Navaid (VOR, NDB)
Fix

Horizontal Profiles

Position Reports

Time Latitude Longitude Heading Altitude Ground
Speed
07-May-19 11:35 42.576707 -100.000811 0 2583ft 0kts
07-May-19 11:36 42.576707 -100.000811 0 2583ft 0kts
07-May-19 11:37 42.576707 -100.000811 0 2583ft 0kts
07-May-19 11:38 42.577893 -99.999590 2 2583ft 24kts
07-May-19 11:39 42.580215 -99.996563 175 2583ft 0kts
07-May-19 11:40 42.558148 -99.999991 217 3217ft 125kts
07-May-19 11:41 42.535495 -100.034639 216 4558ft 120kts
07-May-19 11:42 42.501608 -100.070974 212 4499ft 171kts
07-May-19 11:43 42.464093 -100.107230 210 5130ft 152kts
07-May-19 11:44 42.436470 -100.133371 210 5810ft 147kts
07-May-19 11:45 42.402822 -100.165095 210 6601ft 147kts
07-May-19 11:46 42.369426 -100.196532 210 7367ft 146kts
07-May-19 11:47 42.335965 -100.227990 210 8115ft 146kts
07-May-19 11:48 42.302707 -100.259201 210 8523ft 151kts
07-May-19 11:49 42.266720 -100.292958 210 8513ft 160kts
07-May-19 11:50 42.229760 -100.327576 210 8507ft 162kts
07-May-19 11:51 42.192368 -100.362537 210 8506ft 162kts
07-May-19 11:52 42.154986 -100.397437 210 8506ft 162kts
07-May-19 11:53 42.117465 -100.432411 210 8507ft 162kts
07-May-19 11:54 42.080038 -100.467249 210 8506ft 162kts
07-May-19 11:55 42.042484 -100.502169 210 8506ft 164kts
07-May-19 11:56 42.004459 -100.537464 210 8506ft 164kts
07-May-19 11:57 41.966562 -100.572586 210 8505ft 164kts
07-May-19 11:58 41.928454 -100.607845 210 8506ft 163kts
07-May-19 11:59 41.890488 -100.642923 210 8509ft 163kts
07-May-19 12:00 41.852463 -100.678004 210 8507ft 163kts
07-May-19 12:01 41.814254 -100.713206 210 8507ft 163kts
07-May-19 12:03 41.769876 -100.754021 210 8507ft 163kts
07-May-19 12:03 41.737924 -100.783366 210 8507ft 163kts
07-May-19 12:04 41.699765 -100.818370 210 8498ft 164kts
07-May-19 12:05 41.661578 -100.853366 209 8471ft 163kts
07-May-19 12:06 41.623732 -100.887978 209 8469ft 162kts
07-May-19 12:07 41.585923 -100.922469 209 8469ft 161kts
07-May-19 12:08 41.549808 -100.955414 209 8470ft 161kts
07-May-19 12:09 41.514735 -100.987357 209 8470ft 161kts
07-May-19 12:10 41.478099 -101.020676 209 8470ft 161kts
07-May-19 12:11 41.441041 -101.054326 209 8468ft 161kts
07-May-19 12:12 41.403779 -101.088112 209 8464ft 161kts
07-May-19 12:13 41.366612 -101.121771 209 8460ft 161kts
07-May-19 12:14 41.329313 -101.155502 209 8456ft 161kts
07-May-19 12:15 41.292104 -101.189106 209 8452ft 161kts
07-May-19 12:16 41.254817 -101.222730 209 8448ft 161kts
07-May-19 12:17 41.218636 -101.258991 214 8444ft 163kts
07-May-19 12:18 41.183620 -101.297305 215 8441ft 163kts
07-May-19 12:19 41.148534 -101.335787 215 8441ft 163kts
07-May-19 12:20 41.114177 -101.373438 215 8441ft 163kts
07-May-19 12:21 41.078616 -101.412359 215 8441ft 163kts
07-May-19 12:22 41.042892 -101.451397 215 8441ft 162kts
07-May-19 12:23 41.007189 -101.490355 215 8441ft 162kts
07-May-19 12:24 40.971750 -101.528969 215 8441ft 161kts
07-May-19 12:25 40.936403 -101.567433 215 8441ft 161kts
07-May-19 12:26 40.901146 -101.605741 214 8440ft 161kts
07-May-19 12:27 40.865904 -101.643970 214 8444ft 162kts
07-May-19 12:28 40.830418 -101.682416 214 8442ft 162kts
07-May-19 12:29 40.794785 -101.720966 214 8442ft 162kts
07-May-19 12:30 40.759258 -101.759349 214 8442ft 162kts
07-May-19 12:31 40.723770 -101.797634 214 8440ft 161kts
07-May-19 12:32 40.688125 -101.836033 214 8436ft 161kts
07-May-19 12:33 40.652594 -101.874253 214 8433ft 161kts
07-May-19 12:34 40.617347 -101.912098 214 8303ft 168kts
07-May-19 12:35 40.579394 -101.952826 214 7818ft 176kts
07-May-19 12:36 40.540863 -101.994107 214 7367ft 176kts
07-May-19 12:37 40.502483 -102.035158 214 6925ft 176kts
07-May-19 12:38 40.464134 -102.076105 214 6490ft 176kts
07-May-19 12:39 40.426151 -102.116603 214 6218ft 171kts
07-May-19 12:40 40.388787 -102.156370 214 6221ft 172kts
07-May-19 12:41 40.351205 -102.196318 214 6221ft 172kts
07-May-19 12:42 40.313410 -102.236138 212 6221ft 171kts
07-May-19 12:43 40.263264 -102.241813 177 5276ft 186kts
07-May-19 12:44 40.213129 -102.241602 177 5018ft 171kts
07-May-19 12:45 40.166365 -102.241442 177 4843ft 165kts
07-May-19 12:46 40.123923 -102.241274 175 3997ft 120kts
07-May-19 12:47 40.099950 -102.241138 180 3650ft 0kts

Navigation Log

Ident Type
Flight plan parsing failed, navigation log unavailable